Pagina principale
METAR-TAF:

METAR-TAF

Aeroporti :

Annecy, Francia

latitudine: 45-55-45N, longitudine: 006-05-56E, altezza: 463 m

Osservazione

Il bollettino è stato emesso 14 minuti fa, alle 16:00 UTC
Vento 2 kt da direzioni variabili
Temperature 24°C
Umidità 38%
Pressione 1015 hPa
Visibilità 10 km o più
nessuna nube inferiore a 1500 m e nessun cumulonembo

METAR: LFLP 311600Z AUTO VRB02KT CAVOK 24/09 Q1015

Ora: 18:14 (16:14 UTC)


TAF: mancante

Osservazioni e previsioni meteorologiche di più di 4000 aeroporti (messaggi METAR e TAF).

Le stazioni disponibili sono rappresentate dai dischi gialli e rossi sulla carta.

Puntare il mouse per vedere il nome della stazione.

Clicca sopra per visualizzare le osservazioni e previsioni meteorologiche.

Per cambiare la mappa : fare clic sui pulsanti verdi con una croce nera per ingrandire, il pulsante verde con un trattino per diminuire, o sulla freccia verde per le mappe adiacenti.


METAR-TAF: